Vidal, California
Current Conditions -  °F | °C
As of 5:55 AM on Sunday 25 Jan 2015 (Local Time) from KHII Reporting Station
Clear Clear  
Wind Chill: 57°   Ceiling: Unl
Heat Index: 57°   Visibility: 10mi
Dew Point: 30°   Wind: 8mph
Humidity: 36%   Direction: 340°NNW
Pressure: 30.13"   Gusts: NA
Location:  34.12°N, 114.51°W
Report Text: KHII 251355Z AUTO 34007KT 10SM CLR 14/M01 A3013 RMK AO2
Loading
Personal Weather Stations






























Interactive Weather Map New forecast layout! Learn more

10-Day Weather Forecast

Advertisements
Track Severe Weather on mobile